• Join FlightAware (Why Join?)
  • Login
  • US Flag 
08:02AM EDT


 

Airport Tracker/Info


-or-


 

Live Flight TrackerFlight Track Log ✈ GJS3710 ✈ 07-Jun-2013 ✈ KORD - KALB

Flight Track Log - Related Links

Times and Time Zones

All times are in EDT time to prevent confusion due to time zone crossing. See the GJS3710 flight status page for this flight to view local times or setup timezone preferences in your user account.

Time Position Orientation Groundspeed Altitude Reporting Facility
EDT Latitude Longitude Course Direction KTS MPH feet Rate Location/Type
09:04PM 42.0000 -87.9500 66° East 156 180 2,000  Level Chicago TRACON
09:05PM 42.0500 -87.9167 26° Northeast 199 229 3,400 1,560 Climbing Chicago TRACON
09:06PM 42.0833 -87.8500 56° Northeast 262 302 5,000 1,020 Climbing Chicago TRACON
09:07PM 42.0917 -87.8100 74° East 255 293 5,000  Level Chicago Center
09:08PM 42.1183 -87.7214 68° East 256 295 5,000 360 Level Chicago Center
09:09PM 42.1219 -87.6256 87° East 257 296 5,800 1,740 Climbing Chicago Center
09:10PM 42.2580 -87.0759 66° East  Level FlightAware Approximate
09:10PM 42.1447 -87.5081 75° East 279 321 8,700  Level Chicago Center
09:11PM 42.1750 -87.4092 68° East 287 330 11,300 2,100 Climbing Chicago Center
09:12PM 42.2075 -87.3025 68° East 304 350 13,100 1,320 Climbing Chicago Center
09:13PM 42.2436 -87.1786 68° East 354 407 14,100 960 Climbing Chicago Center
09:14PM 42.2800 -87.0378 71° East 395 455 15,100 1,080 Climbing Chicago Center
09:15PM 42.2861 -86.8800 87° East 420 483 16,400 1,500 Climbing Chicago Center
09:16PM 42.2936 -86.6847 87° East 435 501 18,300 1,560 Climbing Chicago Center
09:17PM 42.3000 -86.5286 87° East 443 510 19,700 1,440 Climbing Chicago Center
09:18PM 42.3075 -86.3353 87° East 452 520 21,400 1,500 Climbing Chicago Center
09:19PM 42.3136 -86.1667 87° East 453 521 22,900 1,440 Climbing Chicago Center
09:20PM 42.3142 -85.9978 90° East 455 524 24,400 1,320 Climbing Chicago Center
09:21PM 42.3117 -85.8286 91° East 455 524 25,700 1,080 Climbing Chicago Center
09:22PM 42.3094 -85.6553 91° East 462 532 26,700 1,020 Climbing Chicago Center
09:23PM 42.3081 -85.4428 90° East 473 544 27,900 1,080 Climbing Chicago Center
09:24PM 42.3053 -85.2636 91° East 479 551 29,000 960 Climbing Chicago Center
09:25PM 42.3017 -85.0844 92° East 480 552 29,900 960 Climbing Chicago Center
09:26PM 42.2978 -84.9050 92° East 481 554 31,000 900 Climbing Chicago Center
09:27PM 42.2944 -84.7261 91° East 479 551 31,800 600 Climbing Chicago Center
09:29PM 42.3011 -84.5431 87° East 488 562 32,300 480 Climbing Chicago Center
09:30PM 42.3214 -84.3161 83° East 508 585 32,900 360 Climbing Chicago Center
09:30PM 42.3342 -84.1450 84° East 502 578 33,000 420 Climbing Cleveland Center
09:31PM 42.3506 -83.9464 84° East 514 592 33,700 660 Climbing Cleveland Center
09:32PM 42.3664 -83.7533 84° East 520 598 34,400 660 Climbing Cleveland Center
09:33PM 42.3822 -83.5572 84° East 520 598 35,100 660 Climbing Cleveland Center
09:34PM 42.3953 -83.3639 85° East 520 598 35,800 600 Climbing Cleveland Center
09:35PM 42.4119 -83.1875 83° East 513 590 36,400 600 Climbing Cleveland Center
09:36PM 42.4264 -82.9967 84° East 518 596 37,100 660 Climbing Cleveland Center
09:37PM 42.4408 -82.8058 84° East 513 590 37,800 720 Climbing Cleveland Center
09:38PM 42.4525 -82.6206 85° East 507 583 38,600 600 Climbing Cleveland Center
09:39PM 42.4661 -82.4381 84° East 494 568 39,000 180 Climbing Cleveland Center
09:40PM 42.4792 -82.2556 84° East 494 568 39,000  Level Cleveland Center
09:41PM 42.4900 -82.0728 85° East 494 568 39,000  Level Cleveland Center
09:42PM 42.5028 -81.8872 85° East 494 568 39,000  Level Cleveland Center
09:43PM 42.5194 -81.6875 83° East 489 563 39,000  Level Cleveland Center
09:44PM 42.5317 -81.5017 85° East 489 563 39,000  Level Cleveland Center
09:45PM 42.5433 -81.3244 85° East 484 557 39,000  Level Cleveland Center
09:46PM 42.5525 -81.1411 86° East 484 557 39,000  Level Cleveland Center
09:47PM 42.5617 -80.9497 86° East 484 557 39,000  Level Cleveland Center
09:48PM 42.5747 -80.7719 84° East 484 557 39,000  Level Cleveland Center
09:49PM 42.5811 -80.6086 87° East 484 557 39,000  Level Cleveland Center
09:50PM 42.5914 -80.4225 86° East 484 557 39,000  Level Cleveland Center
09:51PM 42.6014 -80.2364 86° East 484 557 39,000  Level Cleveland Center
09:52PM 42.6133 -80.0583 85° East 479 551 39,000  Level Cleveland Center
09:53PM 42.6206 -79.8553 87° East 484 557 39,000  Level Cleveland Center
09:54PM 42.6339 -79.6689 84° East 484 557 39,000  Level Cleveland Center
09:55PM 42.6406 -79.4908 87° East 479 551 39,000  Level Cleveland Center
09:56PM 42.6492 -79.3072 86° East 479 551 39,000  Level Cleveland Center
09:57PM 42.6553 -79.1236 87° East 479 551 39,000  Level Cleveland Center
09:58PM 42.6633 -78.9400 87° East 479 551 39,000  Level Cleveland Center
09:59PM 42.6689 -78.7592 88° East 479 551 39,000 -300 Level Cleveland Center
10:00PM 42.6761 -78.5725 87° East 479 551 38,500 -780 Descending Cleveland Center
10:01PM 42.6811 -78.3886 88° East 479 551 37,500 -1,020 Descending Cleveland Center
10:02PM 42.6900 -78.2075 86° East 479 551 36,500 -1,020 Descending Cleveland Center
10:03PM 42.6944 -78.0267 88° East 479 551 35,500 -1,020 Descending Cleveland Center
10:04PM 42.7008 -77.8511 87° East 473 544 34,500 -1,080 Descending Cleveland Center
10:05PM 42.7031 -77.6758 89° East 468 539 33,400 -960 Descending Cleveland Center
10:06PM 42.7111 -77.5086 86° East 475 547 32,600 -720 Descending Cleveland Center
10:09PM 42.7189 -77.0700 88° East 468 539 31,000 -480 Descending Boston Center
10:10PM 42.7244 -76.8781 88° East 480 552 31,000  Level Boston Center
10:11PM 42.7275 -76.6889 89° East 498 573 31,000  Level Boston Center
10:12PM 42.7306 -76.4911 89° East 509 586 31,000 -480 Level Boston Center
10:13PM 42.7372 -76.2992 87° East 514 592 30,100 -1,080 Descending Boston Center
10:14PM 42.7394 -76.1042 89° East 490 564 28,900 -1,140 Descending Boston Center
10:15PM 42.7408 -75.9261 89° East 473 544 27,900 -1,500 Descending Boston Center
10:16PM 42.7442 -75.7508 88° East 467 537 26,000 -2,100 Descending Boston Center
10:17PM 42.7428 -75.5756 91° East 462 532 23,800 -2,220 Descending Boston Center
10:18PM 42.7453 -75.4033 89° East 457 526 21,600 -2,220 Descending Boston Center
10:19PM 42.7472 -75.2450 89° East 445 512 19,400 -2,280 Descending Boston Center
10:20PM 42.7489 -75.0894 89° East 427 491 17,100 -2,280 Descending Boston Center
10:21PM 42.7500 -74.9453 89° East 402 463 14,900 -2,340 Descending Boston Center
10:22PM 42.7483 -74.8350 91° East 362 417 13,000 -2,100 Descending Boston Center
10:23PM 42.7514 -74.6881 88° East 362 417 11,000 -960 Descending Boston Center
10:24PM 42.7494 -74.5608 91° East 333 383 11,000 -300 Level Boston Center
10:25PM 42.7494 -74.4447 90° East 308 354 10,400 -1,140 Descending Boston Center
10:26PM 42.7389 -74.3397 98° East 269 310 8,800 -1,620 Descending Boston Center
10:27PM 42.7050 -74.2397 115° Southeast 265 305 7,000 -1,740 Descending Boston Center
10:28PM 42.6750 -74.1569 116° Southeast 264 304 5,300 -1,740 Descending Boston Center
10:29PM 42.6431 -74.0686 116° Southeast 261 300 3,700 -900 Descending Boston Center
10:30PM 42.6128 -73.9889 117° Southeast 234 269 3,500 -300 Descending Boston Center
10:31PM 42.5847 -73.9119 116° Southeast 230 265 3,100 -540 Descending Boston Center
10:32PM 42.5836 -73.8303 91° East 189 217 2,500 -600 Descending Boston Center
10:33PM 42.6278 -73.8003 27° Northeast 177 204 2,000 -540 Descending Boston Center